GEC8231 KLAX-KSEA
Flight info
| Callsign | GEC8231 |
|---|---|
| Flight time | 2h 4m |
| Altitude | 34000 |
| Route | LADYJ4 CSTRO SHIMR LKV HAWKZ8 |
| Aircraft | B77L/H-SDE1E2E3FGHIJ2J3J4J5M1RWXY/LB1D1 |
Departure
| Time | 2026-05-07 05:40 |
|---|---|
| Airport | Los Angeles International Airport (KLAX) |
Arrival
| Time | 2026-05-07 07:44 |
|---|---|
| Airport | Seattle–Tacoma International Airport (KSEA) |
| Time | Latitude | Longitude | Altitude | Speed | Heading |
|---|---|---|---|---|---|
| 2026-05-07 05:18 | 33.93532 | -118.38220 | 101 ft | 0 kts | 279° |
| 2026-05-07 05:33 | 33.93532 | -118.38216 | 101 ft | 3 kts | 279° |
| 2026-05-07 05:33 | 33.93526 | -118.38185 | 100 ft | 4 kts | 284° |
| 2026-05-07 05:34 | 33.93521 | -118.38160 | 101 ft | 4 kts | 282° |
| 2026-05-07 05:34 | 33.93513 | -118.38133 | 100 ft | 4 kts | 327° |
| 2026-05-07 05:34 | 33.93491 | -118.38127 | 99 ft | 4 kts | 0° |
| 2026-05-07 05:34 | 33.93472 | -118.38127 | 99 ft | 0 kts | 0° |
| 2026-05-07 05:37 | 33.93474 | -118.38127 | 99 ft | 2 kts | 359° |
| 2026-05-07 05:37 | 33.93528 | -118.38128 | 101 ft | 14 kts | 359° |
| 2026-05-07 05:37 | 33.93615 | -118.38179 | 104 ft | 15 kts | 288° |
| 2026-05-07 05:38 | 33.93629 | -118.38253 | 107 ft | 4 kts | 310° |
| 2026-05-07 05:38 | 33.93651 | -118.38269 | 109 ft | 4 kts | 338° |
| 2026-05-07 05:38 | 33.93677 | -118.38279 | 110 ft | 5 kts | 340° |
| 2026-05-07 05:38 | 33.93725 | -118.38353 | 111 ft | 16 kts | 276° |
| 2026-05-07 05:39 | 33.93714 | -118.38496 | 112 ft | 25 kts | 262° |
| 2026-05-07 05:39 | 33.93669 | -118.38948 | 111 ft | 90 kts | 262° |
| 2026-05-07 05:39 | 33.93565 | -118.39954 | 113 ft | 148 kts | 263° |
| 2026-05-07 05:39 | 33.93422 | -118.41365 | 297 ft | 190 kts | 264° |
| 2026-05-07 05:40 | 33.93373 | -118.42865 | 1677 ft | 173 kts | 275° |
| 2026-05-07 05:40 | 33.93458 | -118.44311 | 3059 ft | 175 kts | 267° |
| 2026-05-07 05:40 | 33.93393 | -118.45800 | 4323 ft | 180 kts | 269° |
| 2026-05-07 05:40 | 33.93320 | -118.47334 | 5586 ft | 188 kts | 267° |
| 2026-05-07 05:41 | 33.93187 | -118.48965 | 6550 ft | 203 kts | 268° |
| 2026-05-07 05:41 | 33.93077 | -118.50719 | 7406 ft | 212 kts | 270° |
| 2026-05-07 05:41 | 33.93010 | -118.52457 | 8489 ft | 211 kts | 270° |
| 2026-05-07 05:41 | 33.92906 | -118.54326 | 8909 ft | 235 kts | 266° |
| 2026-05-07 05:42 | 33.92641 | -118.56441 | 8762 ft | 273 kts | 262° |
| 2026-05-07 05:42 | 33.92308 | -118.58789 | 9136 ft | 293 kts | 263° |
| 2026-05-07 05:42 | 33.92190 | -118.61280 | 9617 ft | 303 kts | 280° |
| 2026-05-07 05:42 | 33.92849 | -118.63676 | 9695 ft | 304 kts | 308° |
| 2026-05-07 05:43 | 33.94370 | -118.65360 | 9544 ft | 295 kts | 336° |
| 2026-05-07 05:43 | 33.96265 | -118.66116 | 9523 ft | 280 kts | 354° |
| 2026-05-07 05:43 | 33.98180 | -118.66293 | 9716 ft | 275 kts | 1° |
| 2026-05-07 05:43 | 34.00112 | -118.66301 | 9946 ft | 281 kts | 3° |
| 2026-05-07 05:44 | 34.02100 | -118.66275 | 9837 ft | 288 kts | 3° |
| 2026-05-07 05:44 | 34.04106 | -118.66298 | 9839 ft | 287 kts | 1° |
| 2026-05-07 05:44 | 34.06101 | -118.66355 | 10422 ft | 291 kts | 1° |
| 2026-05-07 05:44 | 34.08219 | -118.66423 | 10692 ft | 318 kts | 1° |
| 2026-05-07 05:45 | 34.10531 | -118.66486 | 10890 ft | 346 kts | 1° |
| 2026-05-07 05:45 | 34.13017 | -118.66552 | 11339 ft | 364 kts | 1° |
| 2026-05-07 05:45 | 34.15591 | -118.66626 | 12061 ft | 374 kts | 1° |
| 2026-05-07 05:45 | 34.18217 | -118.66755 | 12900 ft | 381 kts | 357° |
| 2026-05-07 05:46 | 34.20850 | -118.67292 | 13798 ft | 388 kts | 349° |
| 2026-05-07 05:46 | 34.23441 | -118.68274 | 14615 ft | 393 kts | 342° |
| 2026-05-07 05:46 | 34.26016 | -118.69447 | 15430 ft | 396 kts | 342° |
| 2026-05-07 05:46 | 34.28604 | -118.70628 | 16246 ft | 400 kts | 342° |
| 2026-05-07 05:47 | 34.31224 | -118.71821 | 17052 ft | 403 kts | 341° |
| 2026-05-07 05:47 | 34.33867 | -118.73021 | 17839 ft | 407 kts | 341° |
| 2026-05-07 05:47 | 34.36535 | -118.74228 | 18568 ft | 411 kts | 342° |
| 2026-05-07 05:47 | 34.39229 | -118.75443 | 19223 ft | 415 kts | 342° |
| 2026-05-07 05:48 | 34.41944 | -118.76665 | 19915 ft | 418 kts | 341° |
| 2026-05-07 05:48 | 34.44681 | -118.77897 | 20608 ft | 421 kts | 341° |
| 2026-05-07 05:48 | 34.47432 | -118.79135 | 21307 ft | 423 kts | 341° |
| 2026-05-07 05:48 | 34.50204 | -118.80383 | 21973 ft | 427 kts | 341° |
| 2026-05-07 05:49 | 34.52998 | -118.81641 | 22599 ft | 430 kts | 341° |
| 2026-05-07 05:49 | 34.55820 | -118.82913 | 23250 ft | 434 kts | 341° |
| 2026-05-07 05:49 | 34.58653 | -118.84191 | 23847 ft | 436 kts | 341° |
| 2026-05-07 05:49 | 34.61510 | -118.85481 | 24400 ft | 439 kts | 341° |
| 2026-05-07 05:50 | 34.64386 | -118.86779 | 24895 ft | 443 kts | 341° |
| 2026-05-07 05:50 | 34.67294 | -118.88095 | 25422 ft | 447 kts | 341° |
| 2026-05-07 05:50 | 34.70220 | -118.89418 | 25959 ft | 450 kts | 341° |
| 2026-05-07 05:50 | 34.73162 | -118.90751 | 26493 ft | 453 kts | 341° |
| 2026-05-07 05:51 | 34.76127 | -118.92094 | 27001 ft | 456 kts | 341° |
| 2026-05-07 05:51 | 34.79112 | -118.93447 | 27489 ft | 459 kts | 341° |
| 2026-05-07 05:51 | 34.82117 | -118.94811 | 27982 ft | 463 kts | 341° |
| 2026-05-07 05:51 | 34.85146 | -118.96186 | 28457 ft | 466 kts | 341° |
| 2026-05-07 05:52 | 34.88194 | -118.97572 | 28920 ft | 469 kts | 341° |
| 2026-05-07 05:52 | 34.91259 | -118.98966 | 29362 ft | 472 kts | 341° |
| 2026-05-07 05:52 | 34.94350 | -119.00373 | 29772 ft | 475 kts | 341° |
| 2026-05-07 05:52 | 34.97450 | -119.01786 | 30214 ft | 476 kts | 341° |
| 2026-05-07 05:53 | 35.00550 | -119.03201 | 30703 ft | 475 kts | 341° |
| 2026-05-07 05:53 | 35.03593 | -119.04591 | 31253 ft | 472 kts | 341° |
| 2026-05-07 05:53 | 35.06659 | -119.05992 | 31795 ft | 469 kts | 341° |
| 2026-05-07 05:53 | 35.09711 | -119.07371 | 32268 ft | 467 kts | 343° |
| 2026-05-07 05:54 | 35.12825 | -119.08475 | 32716 ft | 465 kts | 348° |
| 2026-05-07 05:54 | 35.16003 | -119.09154 | 33152 ft | 462 kts | 353° |
| 2026-05-07 05:54 | 35.19182 | -119.09676 | 33618 ft | 460 kts | 353° |
| 2026-05-07 05:54 | 35.22349 | -119.10201 | 34073 ft | 459 kts | 353° |
| 2026-05-07 05:55 | 35.25513 | -119.10734 | 34445 ft | 458 kts | 353° |
| 2026-05-07 05:55 | 35.28661 | -119.11271 | 34775 ft | 457 kts | 353° |
| 2026-05-07 05:55 | 35.31814 | -119.11816 | 35095 ft | 457 kts | 353° |
| 2026-05-07 05:55 | 35.34956 | -119.12364 | 35426 ft | 456 kts | 353° |
| 2026-05-07 05:56 | 35.38090 | -119.12913 | 35756 ft | 455 kts | 353° |
| 2026-05-07 05:56 | 35.41224 | -119.13464 | 36027 ft | 456 kts | 353° |
| 2026-05-07 05:56 | 35.44378 | -119.14018 | 36051 ft | 460 kts | 353° |
| 2026-05-07 05:57 | 35.50741 | -119.15141 | 36109 ft | 465 kts | 353° |
| 2026-05-07 05:57 | 35.57147 | -119.16275 | 36120 ft | 465 kts | 353° |
| 2026-05-07 05:58 | 35.63559 | -119.17409 | 36133 ft | 465 kts | 352° |
| 2026-05-07 05:58 | 35.69959 | -119.18540 | 36128 ft | 464 kts | 352° |
| 2026-05-07 05:59 | 35.76336 | -119.19670 | 36122 ft | 462 kts | 352° |
| 2026-05-07 05:59 | 35.82693 | -119.20802 | 36137 ft | 461 kts | 352° |
| 2026-05-07 06:00 | 35.89026 | -119.21932 | 36127 ft | 459 kts | 352° |
| 2026-05-07 06:00 | 35.95345 | -119.23058 | 36130 ft | 458 kts | 352° |
| 2026-05-07 06:01 | 36.01646 | -119.24180 | 36137 ft | 457 kts | 352° |
| 2026-05-07 06:01 | 36.07946 | -119.25304 | 36126 ft | 457 kts | 352° |
| 2026-05-07 06:02 | 36.14243 | -119.26430 | 36130 ft | 457 kts | 352° |
| 2026-05-07 06:02 | 36.20546 | -119.27558 | 36133 ft | 458 kts | 352° |
| 2026-05-07 06:03 | 36.26863 | -119.28691 | 36135 ft | 459 kts | 352° |
| 2026-05-07 06:03 | 36.33189 | -119.29827 | 36141 ft | 460 kts | 352° |
| 2026-05-07 06:04 | 36.39536 | -119.30969 | 36137 ft | 461 kts | 352° |
| 2026-05-07 06:04 | 36.45887 | -119.32113 | 36129 ft | 462 kts | 351° |
| 2026-05-07 06:05 | 36.52248 | -119.33261 | 36124 ft | 462 kts | 351° |
| 2026-05-07 06:05 | 36.57548 | -119.34219 | 36098 ft | 462 kts | 351° |
| 2026-05-07 06:06 | 36.63915 | -119.35372 | 36102 ft | 463 kts | 351° |
| 2026-05-07 06:06 | 36.70286 | -119.36528 | 36109 ft | 462 kts | 351° |
| 2026-05-07 06:07 | 36.76648 | -119.37683 | 36106 ft | 462 kts | 351° |
| 2026-05-07 06:07 | 36.83003 | -119.38840 | 36106 ft | 461 kts | 351° |
| 2026-05-07 06:08 | 36.89355 | -119.39998 | 36114 ft | 461 kts | 351° |
| 2026-05-07 06:08 | 36.95703 | -119.41157 | 36112 ft | 461 kts | 351° |
| 2026-05-07 06:09 | 37.02049 | -119.42317 | 36103 ft | 461 kts | 351° |
| 2026-05-07 06:09 | 37.08389 | -119.43478 | 36117 ft | 460 kts | 351° |
| 2026-05-07 06:10 | 37.14728 | -119.44642 | 36122 ft | 461 kts | 351° |
| 2026-05-07 06:10 | 37.21067 | -119.45807 | 36119 ft | 460 kts | 351° |
| 2026-05-07 06:11 | 37.27405 | -119.46974 | 36128 ft | 460 kts | 351° |
| 2026-05-07 06:11 | 37.33741 | -119.48143 | 36143 ft | 460 kts | 351° |
| 2026-05-07 06:12 | 37.40065 | -119.49311 | 36131 ft | 459 kts | 351° |
| 2026-05-07 06:12 | 37.46392 | -119.50482 | 36152 ft | 459 kts | 350° |
| 2026-05-07 06:13 | 37.52718 | -119.51655 | 36153 ft | 459 kts | 350° |
| 2026-05-07 06:13 | 37.59037 | -119.52829 | 36168 ft | 459 kts | 350° |
| 2026-05-07 06:14 | 37.65353 | -119.54004 | 36174 ft | 459 kts | 350° |
| 2026-05-07 06:14 | 37.71680 | -119.55183 | 36173 ft | 460 kts | 350° |
| 2026-05-07 06:15 | 37.78013 | -119.56368 | 36192 ft | 460 kts | 350° |
| 2026-05-07 06:15 | 37.84356 | -119.57551 | 36192 ft | 460 kts | 350° |
| 2026-05-07 06:16 | 37.90691 | -119.58736 | 36206 ft | 460 kts | 350° |
| 2026-05-07 06:16 | 37.97018 | -119.59924 | 36163 ft | 459 kts | 350° |
| 2026-05-07 06:17 | 38.03332 | -119.61112 | 36208 ft | 459 kts | 350° |
| 2026-05-07 06:17 | 38.09647 | -119.62302 | 36209 ft | 459 kts | 350° |
| 2026-05-07 06:18 | 38.15919 | -119.63480 | 36211 ft | 459 kts | 350° |
| 2026-05-07 06:18 | 38.22239 | -119.64678 | 36206 ft | 459 kts | 350° |
| 2026-05-07 06:19 | 38.28561 | -119.65878 | 36195 ft | 460 kts | 350° |
| 2026-05-07 06:19 | 38.34899 | -119.67078 | 36191 ft | 461 kts | 350° |
| 2026-05-07 06:20 | 38.41241 | -119.68281 | 36193 ft | 461 kts | 350° |
| 2026-05-07 06:20 | 38.47623 | -119.69496 | 36191 ft | 460 kts | 350° |
| 2026-05-07 06:21 | 38.53904 | -119.70695 | 36203 ft | 460 kts | 350° |
| 2026-05-07 06:21 | 38.60235 | -119.71903 | 36202 ft | 460 kts | 350° |
| 2026-05-07 06:22 | 38.66559 | -119.73114 | 36191 ft | 460 kts | 350° |
| 2026-05-07 06:22 | 38.76050 | -119.74932 | 36237 ft | 460 kts | 350° |
| 2026-05-07 06:23 | 38.82375 | -119.76148 | 36205 ft | 460 kts | 350° |
| 2026-05-07 06:23 | 38.88697 | -119.77365 | 36215 ft | 460 kts | 350° |
| 2026-05-07 06:24 | 38.95026 | -119.78586 | 36222 ft | 459 kts | 350° |
| 2026-05-07 06:24 | 39.01348 | -119.79807 | 36227 ft | 459 kts | 351° |
| 2026-05-07 06:25 | 39.07667 | -119.81031 | 36223 ft | 459 kts | 351° |
| 2026-05-07 06:25 | 39.13999 | -119.82259 | 36232 ft | 460 kts | 351° |
| 2026-05-07 06:26 | 39.20327 | -119.83489 | 36226 ft | 460 kts | 351° |
| 2026-05-07 06:26 | 39.26668 | -119.84723 | 36214 ft | 461 kts | 351° |
| 2026-05-07 06:27 | 39.33020 | -119.85962 | 36191 ft | 461 kts | 351° |
| 2026-05-07 06:27 | 39.39372 | -119.87201 | 36199 ft | 461 kts | 351° |
| 2026-05-07 06:28 | 39.45720 | -119.88442 | 36200 ft | 462 kts | 351° |
| 2026-05-07 06:28 | 39.52078 | -119.89689 | 36202 ft | 462 kts | 351° |
| 2026-05-07 06:29 | 39.58441 | -119.90940 | 36229 ft | 462 kts | 351° |
| 2026-05-07 06:29 | 39.64797 | -119.92244 | 36230 ft | 463 kts | 348° |
| 2026-05-07 06:30 | 39.71069 | -119.94098 | 36233 ft | 462 kts | 346° |
| 2026-05-07 06:30 | 39.77310 | -119.96113 | 36218 ft | 462 kts | 346° |
| 2026-05-07 06:31 | 39.83570 | -119.98103 | 36180 ft | 462 kts | 347° |
| 2026-05-07 06:31 | 39.89827 | -120.00051 | 36084 ft | 463 kts | 347° |
| 2026-05-07 06:32 | 39.96096 | -120.01984 | 36078 ft | 463 kts | 347° |
| 2026-05-07 06:32 | 40.02363 | -120.03921 | 36069 ft | 462 kts | 347° |
| 2026-05-07 06:33 | 40.08625 | -120.05861 | 36076 ft | 462 kts | 347° |
| 2026-05-07 06:33 | 40.14887 | -120.07811 | 36081 ft | 463 kts | 347° |
| 2026-05-07 06:34 | 40.21158 | -120.09763 | 36077 ft | 463 kts | 347° |
| 2026-05-07 06:34 | 40.27426 | -120.11718 | 36069 ft | 463 kts | 347° |
| 2026-05-07 06:35 | 40.33697 | -120.13677 | 36076 ft | 463 kts | 347° |
| 2026-05-07 06:35 | 40.39962 | -120.15638 | 36100 ft | 463 kts | 347° |
| 2026-05-07 06:36 | 40.46236 | -120.17609 | 36095 ft | 464 kts | 347° |
| 2026-05-07 06:36 | 40.52513 | -120.19582 | 36102 ft | 464 kts | 347° |
| 2026-05-07 06:37 | 40.58745 | -120.21545 | 36094 ft | 464 kts | 347° |
| 2026-05-07 06:37 | 40.65016 | -120.23524 | 36097 ft | 463 kts | 347° |
| 2026-05-07 06:38 | 40.71280 | -120.25504 | 36104 ft | 462 kts | 347° |
| 2026-05-07 06:38 | 40.77532 | -120.27485 | 36108 ft | 462 kts | 347° |
| 2026-05-07 06:39 | 40.83785 | -120.29470 | 36115 ft | 462 kts | 347° |
| 2026-05-07 06:39 | 40.90039 | -120.31458 | 36113 ft | 462 kts | 347° |
| 2026-05-07 06:40 | 40.96280 | -120.33447 | 36121 ft | 461 kts | 347° |
| 2026-05-07 06:40 | 41.02531 | -120.35443 | 36125 ft | 461 kts | 347° |
| 2026-05-07 06:41 | 41.08776 | -120.37441 | 36133 ft | 462 kts | 347° |
| 2026-05-07 06:41 | 41.15018 | -120.39441 | 36136 ft | 461 kts | 347° |
| 2026-05-07 06:42 | 41.21263 | -120.41447 | 36149 ft | 461 kts | 347° |
| 2026-05-07 06:42 | 41.27502 | -120.43455 | 36167 ft | 461 kts | 347° |
| 2026-05-07 06:43 | 41.33728 | -120.45462 | 36187 ft | 460 kts | 347° |
| 2026-05-07 06:43 | 41.39958 | -120.47475 | 36202 ft | 460 kts | 347° |
| 2026-05-07 06:44 | 41.46180 | -120.49489 | 36212 ft | 460 kts | 347° |
| 2026-05-07 06:44 | 41.51356 | -120.51168 | 36137 ft | 460 kts | 347° |
| 2026-05-07 06:45 | 41.57575 | -120.53188 | 36146 ft | 460 kts | 346° |
| 2026-05-07 06:45 | 41.63788 | -120.55210 | 36142 ft | 459 kts | 346° |
| 2026-05-07 06:46 | 41.69770 | -120.57162 | 36143 ft | 459 kts | 346° |
| 2026-05-07 06:46 | 41.76018 | -120.59203 | 36144 ft | 459 kts | 346° |
| 2026-05-07 06:47 | 41.82224 | -120.61235 | 36149 ft | 459 kts | 346° |
| 2026-05-07 06:47 | 41.88435 | -120.63273 | 36158 ft | 460 kts | 346° |
| 2026-05-07 06:48 | 41.94648 | -120.65316 | 36166 ft | 460 kts | 346° |
| 2026-05-07 06:48 | 42.00865 | -120.67364 | 36187 ft | 460 kts | 346° |
| 2026-05-07 06:49 | 42.07081 | -120.69415 | 36177 ft | 460 kts | 346° |
| 2026-05-07 06:49 | 42.13298 | -120.71472 | 36180 ft | 459 kts | 346° |
| 2026-05-07 06:50 | 42.19505 | -120.73529 | 36158 ft | 459 kts | 346° |
| 2026-05-07 06:50 | 42.25713 | -120.75590 | 36158 ft | 459 kts | 346° |
| 2026-05-07 06:51 | 42.31913 | -120.77654 | 36163 ft | 459 kts | 346° |
| 2026-05-07 06:51 | 42.38119 | -120.79723 | 36157 ft | 459 kts | 346° |
| 2026-05-07 06:52 | 42.44320 | -120.81795 | 36157 ft | 459 kts | 346° |
| 2026-05-07 06:52 | 42.50523 | -120.83871 | 36164 ft | 459 kts | 346° |
| 2026-05-07 06:53 | 42.56722 | -120.85951 | 36160 ft | 459 kts | 346° |
| 2026-05-07 06:53 | 42.62918 | -120.88033 | 36154 ft | 458 kts | 345° |
| 2026-05-07 06:54 | 42.69116 | -120.90122 | 36157 ft | 458 kts | 345° |
| 2026-05-07 06:54 | 42.75257 | -120.92195 | 36156 ft | 458 kts | 345° |
| 2026-05-07 06:55 | 42.81437 | -120.94285 | 36148 ft | 457 kts | 345° |
| 2026-05-07 06:55 | 42.87614 | -120.96379 | 36156 ft | 457 kts | 345° |
| 2026-05-07 06:56 | 42.93791 | -120.98477 | 36169 ft | 457 kts | 345° |
| 2026-05-07 06:56 | 42.99968 | -121.00579 | 36150 ft | 457 kts | 345° |
| 2026-05-07 06:57 | 43.06136 | -121.02683 | 36154 ft | 457 kts | 345° |
| 2026-05-07 06:57 | 43.12303 | -121.04791 | 36149 ft | 456 kts | 345° |
| 2026-05-07 06:58 | 43.18459 | -121.06898 | 36149 ft | 456 kts | 345° |
| 2026-05-07 06:58 | 43.24612 | -121.09010 | 36154 ft | 455 kts | 345° |
| 2026-05-07 06:59 | 43.30842 | -121.11153 | 36149 ft | 455 kts | 345° |
| 2026-05-07 06:59 | 43.36983 | -121.13269 | 36143 ft | 455 kts | 345° |
| 2026-05-07 07:00 | 43.43133 | -121.15388 | 36159 ft | 455 kts | 345° |
| 2026-05-07 07:00 | 43.49283 | -121.17497 | 36147 ft | 454 kts | 345° |
| 2026-05-07 07:01 | 43.55416 | -121.19625 | 36135 ft | 455 kts | 344° |
| 2026-05-07 07:01 | 43.61546 | -121.21765 | 36140 ft | 454 kts | 344° |
| 2026-05-07 07:02 | 43.67672 | -121.23926 | 36130 ft | 454 kts | 344° |
| 2026-05-07 07:02 | 43.73806 | -121.26073 | 36121 ft | 455 kts | 344° |
| 2026-05-07 07:03 | 43.79945 | -121.28218 | 36140 ft | 456 kts | 344° |
| 2026-05-07 07:03 | 43.86103 | -121.30372 | 36141 ft | 457 kts | 344° |
| 2026-05-07 07:04 | 43.92269 | -121.32536 | 36166 ft | 457 kts | 344° |
| 2026-05-07 07:04 | 43.98410 | -121.34697 | 36150 ft | 458 kts | 344° |
| 2026-05-07 07:05 | 44.04583 | -121.36875 | 36148 ft | 457 kts | 344° |
| 2026-05-07 07:05 | 44.10744 | -121.39053 | 36150 ft | 457 kts | 344° |
| 2026-05-07 07:06 | 44.16900 | -121.41234 | 36151 ft | 456 kts | 343° |
| 2026-05-07 07:06 | 44.23045 | -121.43414 | 36122 ft | 455 kts | 343° |
| 2026-05-07 07:07 | 44.29167 | -121.45593 | 36126 ft | 454 kts | 343° |
| 2026-05-07 07:07 | 44.35276 | -121.47771 | 36116 ft | 452 kts | 343° |
| 2026-05-07 07:08 | 44.41373 | -121.49950 | 36118 ft | 452 kts | 343° |
| 2026-05-07 07:08 | 44.47461 | -121.52131 | 36118 ft | 451 kts | 343° |
| 2026-05-07 07:09 | 44.53549 | -121.54315 | 36134 ft | 451 kts | 343° |
| 2026-05-07 07:09 | 44.59631 | -121.56502 | 36119 ft | 451 kts | 343° |
| 2026-05-07 07:10 | 44.65701 | -121.58689 | 36131 ft | 450 kts | 343° |
| 2026-05-07 07:10 | 44.71764 | -121.60880 | 36125 ft | 450 kts | 343° |
| 2026-05-07 07:11 | 44.77828 | -121.63073 | 36152 ft | 450 kts | 342° |
| 2026-05-07 07:11 | 44.83836 | -121.65255 | 36131 ft | 449 kts | 342° |
| 2026-05-07 07:12 | 44.89873 | -121.67450 | 36148 ft | 447 kts | 342° |
| 2026-05-07 07:12 | 44.95900 | -121.69646 | 36133 ft | 447 kts | 342° |
| 2026-05-07 07:13 | 45.01921 | -121.71845 | 36164 ft | 447 kts | 342° |
| 2026-05-07 07:13 | 45.07931 | -121.74042 | 36144 ft | 447 kts | 342° |
| 2026-05-07 07:14 | 45.13960 | -121.76253 | 36151 ft | 448 kts | 342° |
| 2026-05-07 07:14 | 45.19993 | -121.78471 | 36174 ft | 448 kts | 342° |
| 2026-05-07 07:15 | 45.26042 | -121.80699 | 36166 ft | 450 kts | 342° |
| 2026-05-07 07:15 | 45.32114 | -121.82939 | 36172 ft | 451 kts | 342° |
| 2026-05-07 07:16 | 45.38200 | -121.85192 | 36189 ft | 452 kts | 342° |
| 2026-05-07 07:16 | 45.44262 | -121.87439 | 36210 ft | 454 kts | 342° |
| 2026-05-07 07:17 | 45.50384 | -121.89714 | 36205 ft | 454 kts | 342° |
| 2026-05-07 07:17 | 45.56480 | -121.91998 | 36204 ft | 452 kts | 342° |
| 2026-05-07 07:18 | 45.62576 | -121.94262 | 36204 ft | 452 kts | 342° |
| 2026-05-07 07:18 | 45.68657 | -121.96530 | 36185 ft | 450 kts | 342° |
| 2026-05-07 07:19 | 45.71667 | -121.97658 | 35866 ft | 447 kts | 342° |
| 2026-05-07 07:19 | 45.74690 | -121.98795 | 35240 ft | 447 kts | 342° |
| 2026-05-07 07:19 | 45.77684 | -121.99920 | 34694 ft | 444 kts | 342° |
| 2026-05-07 07:19 | 45.80673 | -122.01043 | 34144 ft | 444 kts | 342° |
| 2026-05-07 07:20 | 45.83657 | -122.02167 | 33560 ft | 443 kts | 342° |
| 2026-05-07 07:20 | 45.86640 | -122.03291 | 32988 ft | 442 kts | 342° |
| 2026-05-07 07:20 | 45.89612 | -122.04411 | 32435 ft | 441 kts | 342° |
| 2026-05-07 07:20 | 45.92579 | -122.05532 | 31908 ft | 440 kts | 342° |
| 2026-05-07 07:21 | 45.95536 | -122.06648 | 31361 ft | 439 kts | 342° |
| 2026-05-07 07:21 | 45.98486 | -122.07764 | 30850 ft | 438 kts | 342° |
| 2026-05-07 07:21 | 46.01429 | -122.08879 | 30312 ft | 438 kts | 342° |
| 2026-05-07 07:21 | 46.04379 | -122.09998 | 29674 ft | 436 kts | 342° |
| 2026-05-07 07:22 | 46.07279 | -122.11099 | 29083 ft | 424 kts | 341° |
| 2026-05-07 07:22 | 46.10069 | -122.12156 | 28559 ft | 406 kts | 341° |
| 2026-05-07 07:22 | 46.12769 | -122.13185 | 28088 ft | 398 kts | 341° |
| 2026-05-07 07:22 | 46.15406 | -122.14194 | 27603 ft | 395 kts | 341° |
| 2026-05-07 07:23 | 46.18056 | -122.15207 | 27117 ft | 393 kts | 341° |
| 2026-05-07 07:23 | 46.20684 | -122.16210 | 26614 ft | 389 kts | 341° |
| 2026-05-07 07:23 | 46.23296 | -122.17203 | 26145 ft | 386 kts | 341° |
| 2026-05-07 07:23 | 46.25888 | -122.18199 | 25689 ft | 384 kts | 341° |
| 2026-05-07 07:24 | 46.28468 | -122.19192 | 25210 ft | 383 kts | 341° |
| 2026-05-07 07:24 | 46.31035 | -122.20178 | 24732 ft | 382 kts | 341° |
| 2026-05-07 07:24 | 46.33608 | -122.21166 | 24266 ft | 381 kts | 341° |
| 2026-05-07 07:24 | 46.36169 | -122.22150 | 23786 ft | 381 kts | 341° |
| 2026-05-07 07:25 | 46.40423 | -122.23784 | 22940 ft | 379 kts | 340° |
| 2026-05-07 07:25 | 46.42960 | -122.24759 | 22473 ft | 376 kts | 340° |
| 2026-05-07 07:25 | 46.46297 | -122.26045 | 21788 ft | 374 kts | 340° |
| 2026-05-07 07:26 | 46.48821 | -122.27019 | 21217 ft | 375 kts | 340° |
| 2026-05-07 07:26 | 46.51333 | -122.27987 | 20760 ft | 372 kts | 340° |
| 2026-05-07 07:26 | 46.53025 | -122.28640 | 20447 ft | 371 kts | 340° |
| 2026-05-07 07:26 | 46.55501 | -122.29596 | 19982 ft | 363 kts | 340° |
| 2026-05-07 07:27 | 46.57894 | -122.30517 | 19524 ft | 349 kts | 340° |
| 2026-05-07 07:27 | 46.60198 | -122.31410 | 19118 ft | 346 kts | 340° |
| 2026-05-07 07:27 | 46.62518 | -122.32312 | 18688 ft | 344 kts | 340° |
| 2026-05-07 07:27 | 46.64831 | -122.33211 | 18223 ft | 343 kts | 340° |
| 2026-05-07 07:28 | 46.67132 | -122.34105 | 17781 ft | 341 kts | 340° |
| 2026-05-07 07:28 | 46.69415 | -122.34994 | 17338 ft | 339 kts | 340° |
| 2026-05-07 07:28 | 46.71686 | -122.35877 | 16915 ft | 336 kts | 340° |
| 2026-05-07 07:28 | 46.73933 | -122.36755 | 16493 ft | 334 kts | 340° |
| 2026-05-07 07:29 | 46.76173 | -122.37630 | 16069 ft | 331 kts | 340° |
| 2026-05-07 07:29 | 46.78390 | -122.38495 | 15664 ft | 329 kts | 340° |
| 2026-05-07 07:29 | 46.80596 | -122.39354 | 15248 ft | 327 kts | 340° |
| 2026-05-07 07:29 | 46.82783 | -122.40206 | 14848 ft | 324 kts | 340° |
| 2026-05-07 07:30 | 46.84956 | -122.41056 | 14447 ft | 322 kts | 340° |
| 2026-05-07 07:30 | 46.87112 | -122.41899 | 14055 ft | 320 kts | 340° |
| 2026-05-07 07:30 | 46.89257 | -122.42739 | 13610 ft | 318 kts | 340° |
| 2026-05-07 07:30 | 46.91381 | -122.43571 | 13185 ft | 315 kts | 340° |
| 2026-05-07 07:31 | 46.93486 | -122.44396 | 12791 ft | 312 kts | 341° |
| 2026-05-07 07:31 | 46.95571 | -122.45214 | 12394 ft | 308 kts | 341° |
| 2026-05-07 07:31 | 46.97637 | -122.46024 | 12012 ft | 306 kts | 341° |
| 2026-05-07 07:31 | 46.99671 | -122.46821 | 11875 ft | 297 kts | 341° |
| 2026-05-07 07:32 | 47.01587 | -122.47570 | 11573 ft | 282 kts | 341° |
| 2026-05-07 07:32 | 47.03463 | -122.48311 | 11164 ft | 279 kts | 341° |
| 2026-05-07 07:32 | 47.05355 | -122.49063 | 11023 ft | 284 kts | 341° |
| 2026-05-07 07:32 | 47.07255 | -122.49800 | 10973 ft | 278 kts | 344° |
| 2026-05-07 07:33 | 47.09174 | -122.49937 | 10842 ft | 280 kts | 2° |
| 2026-05-07 07:33 | 47.11108 | -122.49522 | 10585 ft | 281 kts | 3° |
| 2026-05-07 07:33 | 47.13054 | -122.49135 | 10258 ft | 283 kts | 3° |
| 2026-05-07 07:33 | 47.14997 | -122.48768 | 10078 ft | 278 kts | 3° |
| 2026-05-07 07:34 | 47.16900 | -122.48416 | 10024 ft | 275 kts | 2° |
| 2026-05-07 07:34 | 47.18809 | -122.48069 | 10000 ft | 278 kts | 3° |
| 2026-05-07 07:34 | 47.20730 | -122.47744 | 9866 ft | 278 kts | 2° |
| 2026-05-07 07:34 | 47.22659 | -122.47455 | 9554 ft | 278 kts | 1° |
| 2026-05-07 07:35 | 47.24593 | -122.47168 | 9231 ft | 279 kts | 2° |
| 2026-05-07 07:35 | 47.26525 | -122.46880 | 8950 ft | 279 kts | 2° |
| 2026-05-07 07:35 | 47.28455 | -122.46585 | 8699 ft | 278 kts | 3° |
| 2026-05-07 07:35 | 47.30369 | -122.46292 | 8446 ft | 277 kts | 3° |
| 2026-05-07 07:36 | 47.32264 | -122.46003 | 8175 ft | 277 kts | 3° |
| 2026-05-07 07:36 | 47.34175 | -122.45712 | 7888 ft | 277 kts | 3° |
| 2026-05-07 07:36 | 47.36073 | -122.45468 | 7484 ft | 268 kts | 359° |
| 2026-05-07 07:36 | 47.37892 | -122.45456 | 7121 ft | 256 kts | 356° |
| 2026-05-07 07:37 | 47.39643 | -122.45487 | 6729 ft | 247 kts | 356° |
| 2026-05-07 07:37 | 47.41317 | -122.45517 | 6316 ft | 236 kts | 357° |
| 2026-05-07 07:37 | 47.42932 | -122.45535 | 5917 ft | 231 kts | 357° |
| 2026-05-07 07:37 | 47.44535 | -122.45547 | 5532 ft | 229 kts | 359° |
| 2026-05-07 07:38 | 47.46126 | -122.45549 | 5161 ft | 228 kts | 359° |
| 2026-05-07 07:38 | 47.47688 | -122.45551 | 4882 ft | 222 kts | 359° |
| 2026-05-07 07:38 | 47.49233 | -122.45554 | 4456 ft | 222 kts | 359° |
| 2026-05-07 07:38 | 47.50767 | -122.45557 | 4092 ft | 220 kts | 0° |
| 2026-05-07 07:39 | 47.52295 | -122.45575 | 3707 ft | 218 kts | 359° |
| 2026-05-07 07:39 | 47.53781 | -122.45607 | 3283 ft | 210 kts | 359° |
| 2026-05-07 07:39 | 47.55221 | -122.45629 | 2862 ft | 203 kts | 359° |
| 2026-05-07 07:39 | 47.56600 | -122.45561 | 2501 ft | 192 kts | 9° |
| 2026-05-07 07:40 | 47.57728 | -122.44828 | 2489 ft | 175 kts | 49° |
| 2026-05-07 07:40 | 47.58256 | -122.43247 | 2467 ft | 170 kts | 82° |
| 2026-05-07 07:40 | 47.58381 | -122.41539 | 2514 ft | 171 kts | 86° |
| 2026-05-07 07:40 | 47.58460 | -122.39785 | 2528 ft | 168 kts | 86° |
| 2026-05-07 07:41 | 47.58307 | -122.38104 | 2479 ft | 164 kts | 120° |
| 2026-05-07 07:41 | 47.57676 | -122.36768 | 2501 ft | 157 kts | 127° |
| 2026-05-07 07:41 | 47.56935 | -122.35612 | 2491 ft | 153 kts | 139° |
| 2026-05-07 07:41 | 47.56132 | -122.34584 | 2484 ft | 154 kts | 140° |
| 2026-05-07 07:42 | 47.55319 | -122.33544 | 2370 ft | 154 kts | 140° |
| 2026-05-07 07:42 | 47.54517 | -122.32539 | 2042 ft | 150 kts | 147° |
| 2026-05-07 07:42 | 47.53570 | -122.32053 | 1921 ft | 145 kts | 173° |
| 2026-05-07 07:42 | 47.52553 | -122.31871 | 1719 ft | 147 kts | 175° |
| 2026-05-07 07:43 | 47.51542 | -122.31726 | 1497 ft | 146 kts | 178° |
| 2026-05-07 07:43 | 47.50534 | -122.31699 | 1300 ft | 144 kts | 180° |
| 2026-05-07 07:43 | 47.49513 | -122.31722 | 1032 ft | 147 kts | 184° |
| 2026-05-07 07:43 | 47.48514 | -122.31767 | 850 ft | 143 kts | 180° |
| 2026-05-07 07:44 | 47.47524 | -122.31774 | 739 ft | 142 kts | 181° |
| 2026-05-07 07:44 | 47.46520 | -122.31786 | 524 ft | 145 kts | 179° |
| 2026-05-07 07:44 | 47.45532 | -122.31787 | 400 ft | 134 kts | 182° |
| 2026-05-07 07:44 | 47.44869 | -122.31801 | 397 ft | 45 kts | 179° |
| 2026-05-07 07:45 | 47.44617 | -122.31757 | 397 ft | 30 kts | 161° |
| 2026-05-07 07:45 | 47.44441 | -122.31639 | 396 ft | 26 kts | 152° |
| 2026-05-07 07:45 | 47.44298 | -122.31506 | 397 ft | 21 kts | 142° |
| 2026-05-07 07:45 | 47.44240 | -122.31391 | 396 ft | 12 kts | 115° |
| 2026-05-07 07:46 | 47.44212 | -122.31271 | 397 ft | 12 kts | 110° |
| 2026-05-07 07:46 | 47.44211 | -122.31152 | 395 ft | 12 kts | 50° |
| 2026-05-07 07:46 | 47.44292 | -122.31125 | 396 ft | 12 kts | 1° |
| 2026-05-07 07:46 | 47.44378 | -122.31123 | 398 ft | 12 kts | 359° |
| 2026-05-07 07:47 | 47.44464 | -122.31121 | 395 ft | 12 kts | 1° |
| 2026-05-07 07:47 | 47.44550 | -122.31118 | 394 ft | 12 kts | 2° |
| 2026-05-07 07:47 | 47.44652 | -122.31118 | 397 ft | 17 kts | 2° |
| 2026-05-07 07:47 | 47.44791 | -122.31112 | 397 ft | 22 kts | 4° |
| 2026-05-07 07:48 | 47.44945 | -122.31080 | 394 ft | 22 kts | 13° |
| 2026-05-07 07:48 | 47.45087 | -122.30987 | 397 ft | 22 kts | 28° |
| 2026-05-07 07:48 | 47.45206 | -122.30843 | 396 ft | 22 kts | 61° |
| 2026-05-07 07:48 | 47.45241 | -122.30655 | 397 ft | 14 kts | 54° |
| 2026-05-07 07:49 | 47.45334 | -122.30619 | 397 ft | 14 kts | 357° |
| 2026-05-07 07:49 | 47.45432 | -122.30618 | 397 ft | 14 kts | 2° |
| 2026-05-07 07:49 | 47.45533 | -122.30618 | 397 ft | 14 kts | 353° |
| 2026-05-07 07:49 | 47.45631 | -122.30624 | 395 ft | 14 kts | 2° |
| 2026-05-07 07:50 | 47.45731 | -122.30617 | 396 ft | 14 kts | 1° |
| 2026-05-07 07:50 | 47.45832 | -122.30615 | 398 ft | 14 kts | 1° |
| 2026-05-07 07:50 | 47.45931 | -122.30615 | 397 ft | 14 kts | 360° |
| 2026-05-07 07:50 | 47.46030 | -122.30613 | 397 ft | 14 kts | 359° |
| 2026-05-07 07:51 | 47.46130 | -122.30607 | 397 ft | 14 kts | 13° |
| 2026-05-07 07:51 | 47.46179 | -122.30492 | 394 ft | 14 kts | 89° |
| 2026-05-07 07:51 | 47.46206 | -122.30403 | 397 ft | 8 kts | 10° |
| 2026-05-07 07:51 | 47.46247 | -122.30401 | 394 ft | 0 kts | 0° |
| 2026-05-07 07:54 | 47.46102 | -122.30359 | 397 ft | 0 kts | 180° |